Terminal Aerodrome Forecast
Issued by NWS Quad Cities IA IL

Home | Current Version | Previous Version | Text Only | Print | Product List | Glossary On
Versions: 1 2 3 4 5 6 7 8 9 10 11 12 13 14 15 16 17 18 19
000
FTUS43 KDVN 290520
TAFMLI
TAF
KMLI 290520Z 2906/3006 26005KT P6SM SCT100
     FM291500 28012KT P6SM SCT120
     FM291800 29015G25KT P6SM BKN050
     FM300000 28009KT P6SM BKN070=

USA.gov is the U.S. government's official web portal to all federal, state and local government web resources and services.